The TAF format will change on Nov 5th, 2008

Beginning at 00Z Nov 5, 2008, the NWS will begin issuing 30-hour TAFS for 32 airports across the country. DTW is included in this list. Due to this change, a date/time element will be added to the body of the TAF, including the change groups. To unify the TAF code, even those TAFS that remain a 24-hour forecast (DET,FNT,MBS) will change over to the new code.

 

The change: add the date to each time group.
The valid time of a TAF will change from the present ddhhhh to ddhh/ddhh
FM groups change from hhmm to ddhhmm
TEMPOs and PROBs will also change: hhhh in both groups changes to

   ddhh/ddhh

 

EXAMPLES

 

 

30-hour format for DTW

(Present format)

 KDTW 061131Z 061212 22015G24KT P6SM

                SCT250

          FM1900 21015KT P6SM FEW250

          FM0000 17010KT P6SM SKC

          FM0600 18014G21KT P6SM BKN030=

(New Format)       

KDTW 061131Z 0612/0718 22015G24KT P6SM

                   SCT250

          FM061900 21015KT P6SM FEW250

          FM070000 17010KT P6SM SKC

          FM070600 18014G21KT P6SM BKN030

          FM071400 24012T P6SM SKC=

 

 

24-hour format for FNT,MBS,DET

(Present format)

 KFNT 281737Z 281818 23014KT P6SM SCT200

           FM2100 17015KT P6SM SCT050 BKN100

             TEMPO 2101 VRB15G25KT 2SM +TSRA

                 OVC025CB

            FM0300 01010KT P6SM SCT030 BKN200

            FM1100 06007KT P6SM SKC=

(New Format)       

KFNT 281737Z 2818/2918 23014KT P6SM SCT200

           FM282100 17015KT P6SM SCT050 BKN100

              TEMPO 2821/2901 VRB15G25KT 2SM +TSRA

                  OVC025CB

            FM290300 01010KT P6SM SCT030 BKN200

            FM291100 06007KT P6SM SKC=

 

 

 

 



Return to News Archive

USA.gov is the U.S. government's official web portal to all federal, state and local government web resources and services.